Time;durP1;ratioP1;P1;durP2;ratioP2;P2;SDS_P1;SDS_P2;PMS_P1;PMS_P2;Temp;Humidity;BMP_temperature;BMP_pressure;BME280_temperature;BME280_humidity;BME280_pressure;Samples;Min_cycle;Max_cycle;Signal;HPM_P1;HPM_P2
2023/10/18 00:02:16;;;;;;;11.00;9.95;;;;;;;9.59;100.00;95291.53;6283334;22;20010;-79
2023/10/18 00:04:44;;;;;;;9.00;8.20;;;;;;;9.60;100.00;95292.34;6309415;22;20022;-78
2023/10/18 00:07:12;;;;;;;8.52;7.18;;;;;;;9.60;100.00;95287.94;6281464;22;20422;-78
2023/10/18 00:09:48;;;;;;;7.60;6.90;;;;;;;9.56;100.00;95281.31;6308634;22;20318;-78
2023/10/18 00:12:18;;;;;;;6.45;5.90;;;;;;;9.55;100.00;95278.84;6308134;22;20011;-79
2023/10/18 00:14:50;;;;;;;6.53;5.95;;;;;;;9.53;100.00;95281.63;6308592;22;20080;-79
2023/10/18 00:17:16;;;;;;;6.38;5.88;;;;;;;9.53;100.00;95281.63;6306857;22;20038;-78
2023/10/18 00:19:41;;;;;;;8.32;7.53;;;;;;;9.58;100.00;95268.03;6308376;22;20007;-79
2023/10/18 00:22:12;;;;;;;8.15;7.43;;;;;;;9.64;100.00;95272.72;6280254;22;20023;-79
2023/10/18 00:24:37;;;;;;;7.65;6.90;;;;;;;9.63;100.00;95255.28;6308742;22;20309;-78
2023/10/18 00:27:03;;;;;;;7.50;6.80;;;;;;;9.65;100.00;95250.72;6308013;22;19999;-78
2023/10/18 00:29:30;;;;;;;7.25;6.63;;;;;;;9.59;100.00;95248.66;6308815;22;20043;-78
2023/10/18 00:31:56;;;;;;;7.63;6.53;;;;;;;9.58;100.00;95231.22;6307860;22;20022;-78
2023/10/18 00:34:22;;;;;;;6.82;6.22;;;;;;;9.57;100.00;95224.31;6309298;22;20003;-78
2023/10/18 00:36:47;;;;;;;6.07;5.68;;;;;;;9.56;100.00;95213.00;6280870;22;20011;-78
2023/10/18 00:39:27;;;;;;;6.28;5.70;;;;;;;9.56;100.00;95213.00;6308923;22;20006;-79
2023/10/18 00:41:54;;;;;;;6.68;5.95;;;;;;;9.56;100.00;95199.84;6284763;22;20003;-78
2023/10/18 00:44:21;;;;;;;6.75;6.07;;;;;;;9.57;100.00;95200.66;6308679;22;20309;-78
2023/10/18 00:46:50;;;;;;;6.72;6.13;;;;;;;9.58;100.00;95197.91;6307816;22;20014;-77
2023/10/18 00:49:16;;;;;;;6.93;6.32;;;;;;;9.98;100.00;95219.50;6307900;22;20002;-79
2023/10/18 00:51:43;;;;;;;6.75;6.15;;;;;;;10.04;100.00;95232.03;6308222;22;19999;-78
2023/10/18 00:54:12;;;;;;;7.72;6.93;;;;;;;10.06;100.00;95229.28;6307888;22;20077;-78
2023/10/18 00:56:44;;;;;;;7.22;6.53;;;;;;;9.84;100.00;95230.56;6307700;22;20039;-78
2023/10/18 00:59:21;;;;;;;6.88;6.28;;;;;;;9.73;100.00;95232.41;6308211;22;19995;-78
2023/10/18 01:01:46;;;;;;;8.88;7.47;;;;;;;9.68;100.00;95226.75;6307683;22;20477;-78
2023/10/18 01:04:12;;;;;;;10.18;6.47;;;;;;;9.72;100.00;95222.84;6257202;22;1185235;-78
2023/10/18 01:06:43;;;;;;;6.55;5.65;;;;;;;9.73;100.00;95214.00;6310033;22;20007;-79
2023/10/18 01:09:15;;;;;;;4.88;4.47;;;;;;;9.72;100.00;95201.81;6283281;22;20003;-78
2023/10/18 01:11:41;;;;;;;5.57;5.18;;;;;;;9.73;100.00;95198.22;6309927;22;20007;-79
2023/10/18 01:14:07;;;;;;;5.80;5.30;;;;;;;9.83;100.00;95199.94;6308218;22;19999;-79
2023/10/18 01:16:36;;;;;;;5.65;5.20;;;;;;;9.84;100.00;95186.66;6281249;22;20224;-79
2023/10/18 01:19:04;;;;;;;6.75;5.25;;;;;;;9.87;100.00;95194.25;6309176;22;20298;-78
2023/10/18 01:21:32;;;;;;;5.72;4.90;;;;;;;9.90;100.00;95190.50;6282254;22;20037;-78
2023/10/18 01:23:59;;;;;;;5.63;5.15;;;;;;;9.86;100.00;95189.97;6282986;22;20006;-78
2023/10/18 01:26:30;;;;;;;5.30;4.90;;;;;;;9.83;100.00;95186.81;6309540;22;20379;-78
2023/10/18 01:29:03;;;;;;;4.90;4.50;;;;;;;9.85;100.00;95190.94;6309695;22;20455;-78
2023/10/18 01:31:29;;;;;;;5.03;4.60;;;;;;;9.85;100.00;95196.19;6281634;22;20007;-79
2023/10/18 01:33:54;;;;;;;4.90;4.60;;;;;;;9.80;100.00;95187.94;6281375;22;20095;-79
2023/10/18 01:36:21;;;;;;;5.18;4.68;;;;;;;9.72;100.00;95183.44;6309631;22;20082;-79
2023/10/18 01:38:49;;;;;;;4.85;4.47;;;;;;;9.72;100.00;95179.97;6309135;22;20069;-78
2023/10/18 01:41:37;;;;;;;5.38;4.78;;;;;;;9.73;100.00;95176.38;6309960;22;20055;-78
2023/10/18 01:44:07;;;;;;;5.90;4.72;;;;;;;9.70;100.00;95169.59;6309529;22;19999;-78
2023/10/18 01:46:46;;;;;;;4.65;4.32;;;;;;;9.71;100.00;95159.91;6309163;22;20002;-78
2023/10/18 01:49:21;;;;;;;5.60;4.88;;;;;;;9.68;100.00;95162.84;6283402;22;20336;-78
2023/10/18 01:51:50;;;;;;;5.47;5.03;;;;;;;9.81;100.00;95162.47;6309280;22;20003;-79
2023/10/18 01:54:16;;;;;;;5.93;5.30;;;;;;;9.79;100.00;95159.16;6309821;22;20035;-79
2023/10/18 01:56:48;;;;;;;4.97;4.53;;;;;;;9.71;100.00;95167.78;6308498;22;20006;-78
2023/10/18 01:59:16;;;;;;;5.03;4.68;;;;;;;9.69;100.00;95167.97;6308570;22;20018;-79
2023/10/18 02:01:45;;;;;;;5.80;5.30;;;;;;;9.67;100.00;95162.03;6282193;22;20010;-78
2023/10/18 02:04:23;;;;;;;5.93;5.40;;;;;;;9.65;100.00;95168.41;6309243;22;20011;-79
2023/10/18 02:06:57;;;;;;;6.55;5.80;;;;;;;9.63;100.00;95165.09;6307928;22;20138;-78
2023/10/18 02:09:23;;;;;;;6.43;5.70;;;;;;;9.59;100.00;95151.41;6309696;22;20078;-78
2023/10/18 02:11:49;;;;;;;6.50;5.90;;;;;;;9.58;100.00;95147.13;6307403;22;20074;-78
2023/10/18 02:14:14;;;;;;;6.50;5.85;;;;;;;9.53;100.00;95142.34;6306460;22;20034;-78
2023/10/18 02:16:41;;;;;;;7.75;5.70;;;;;;;9.52;100.00;95140.69;6308527;22;20023;-78
2023/10/18 02:19:08;;;;;;;6.40;5.90;;;;;;;9.51;100.00;95140.84;6308451;22;19995;-78
2023/10/18 02:21:36;;;;;;;6.68;6.18;;;;;;;9.46;100.00;95136.84;6308841;22;19999;-78
2023/10/18 02:24:01;;;;;;;6.85;6.13;;;;;;;9.45;100.00;95140.47;6308878;22;20022;-78
2023/10/18 02:26:30;;;;;;;6.30;5.68;;;;;;;9.42;100.00;95135.50;6308536;22;20071;-78
2023/10/18 02:28:57;;;;;;;5.75;5.35;;;;;;;9.40;100.00;95136.63;6308582;22;19999;-78
2023/10/18 02:31:24;;;;;;;9.13;5.80;;;;;;;9.38;100.00;95133.31;6308651;22;20029;-78
2023/10/18 02:33:49;;;;;;;6.47;5.80;;;;;;;9.37;100.00;95134.28;6280377;22;20003;-78
2023/10/18 02:36:21;;;;;;;6.40;5.78;;;;;;;9.36;100.00;95132.63;6281613;22;20006;-78
2023/10/18 02:38:49;;;;;;;6.22;5.63;;;;;;;9.31;100.00;95130.44;6308456;22;20027;-78
2023/10/18 02:41:29;;;;;;;6.20;5.63;;;;;;;9.29;100.00;95127.97;6309190;22;20274;-79
2023/10/18 02:43:57;;;;;;;5.85;5.45;;;;;;;9.25;100.00;95137.09;6309567;22;20412;-78
2023/10/18 02:46:23;;;;;;;7.03;6.43;;;;;;;9.25;100.00;95131.03;6308304;22;19999;-78
2023/10/18 02:48:53;;;;;;;5.55;5.05;;;;;;;9.24;100.00;95132.03;6307885;22;20278;-79
2023/10/18 02:51:22;;;;;;;6.28;5.68;;;;;;;9.28;100.00;95131.59;6309173;22;20061;-79
2023/10/18 02:53:51;;;;;;;7.30;5.57;;;;;;;9.25;100.00;95129.22;6307836;22;20419;-78
2023/10/18 02:56:20;;;;;;;6.03;5.63;;;;;;;9.19;100.00;95129.00;6309565;22;20003;-78
2023/10/18 02:58:49;;;;;;;6.57;5.97;;;;;;;9.19;100.00;95124.56;6309107;22;20006;-78
2023/10/18 03:01:14;;;;;;;6.75;6.07;;;;;;;9.20;100.00;95130.66;6307964;22;20007;-78
2023/10/18 03:03:40;;;;;;;8.00;7.30;;;;;;;9.19;100.00;95119.31;6309973;22;20440;-79
2023/10/18 03:06:12;;;;;;;9.15;8.43;;;;;;;9.23;100.00;95125.94;6311626;22;20003;-79
2023/10/18 03:08:39;;;;;;;9.90;9.10;;;;;;;9.25;100.00;95120.53;6310935;22;20019;-78
2023/10/18 03:11:05;;;;;;;9.65;8.45;;;;;;;9.23;100.00;95123.28;6310769;22;19999;-78
2023/10/18 03:13:31;;;;;;;7.85;7.25;;;;;;;9.24;100.00;95116.25;6313421;22;20091;-78
2023/10/18 03:16:15;;;;;;;7.68;7.05;;;;;;;9.24;100.00;95119.69;6313267;22;20010;-78
2023/10/18 03:18:44;;;;;;;10.23;7.70;;;;;;;9.24;100.00;95116.25;6312609;22;20011;-78
2023/10/18 03:21:20;;;;;;;7.80;7.13;;;;;;;9.24;100.00;95118.88;6312348;22;20002;-77
2023/10/18 03:23:52;;;;;;;7.65;7.05;;;;;;;9.21;100.00;95101.63;6313934;22;20368;-78
2023/10/18 03:26:22;;;;;;;8.00;7.47;;;;;;;9.23;100.00;95101.47;6311434;22;20006;-78
2023/10/18 03:28:51;;;;;;;10.45;9.07;;;;;;;9.22;100.00;95103.25;6311125;22;20006;-78
2023/10/18 03:31:29;;;;;;;8.73;8.02;;;;;;;9.23;100.00;95094.41;6311585;22;20078;-78
2023/10/18 03:34:08;;;;;;;8.23;7.53;;;;;;;9.26;100.00;95088.03;6312185;22;20003;-78
2023/10/18 03:36:35;;;;;;;8.10;7.20;;;;;;;9.26;100.00;95086.22;6315517;22;20402;-78
2023/10/18 03:39:10;;;;;;;6.78;6.18;;;;;;;9.26;100.00;95073.09;6316855;22;19999;-78
2023/10/18 03:41:40;;;;;;;7.50;6.88;;;;;;;9.26;100.00;95072.28;6312399;22;19999;-78
2023/10/18 03:44:09;;;;;;;8.20;7.50;;;;;;;9.24;100.00;95061.09;6310676;22;20006;-78
2023/10/18 03:46:38;;;;;;;8.40;7.68;;;;;;;9.34;100.00;95058.41;6256950;22;20205;-78
2023/10/18 03:49:16;;;;;;;8.55;7.80;;;;;;;9.34;100.00;95042.66;6309938;22;20364;-79
2023/10/18 03:51:41;;;;;;;8.27;7.53;;;;;;;9.32;100.00;95040.16;6309833;22;20163;-78
2023/10/18 03:54:12;;;;;;;7.47;6.88;;;;;;;9.31;100.00;95033.25;6309502;22;20003;-78
2023/10/18 03:56:39;;;;;;;7.20;6.60;;;;;;;9.29;100.00;95022.06;6310008;22;19999;-78
2023/10/18 03:59:24;;;;;;;6.82;6.35;;;;;;;9.33;100.00;95020.78;6311278;22;20070;-78
2023/10/18 04:04:37;;;;;;;7.28;6.65;;;;;;;9.28;100.00;95012.53;6309875;22;20157;-78
2023/10/18 04:07:16;;;;;;;6.70;6.07;;;;;;;9.27;100.00;95006.44;6310192;22;20163;-78
2023/10/18 04:09:47;;;;;;;7.75;6.75;;;;;;;9.32;100.00;95000.75;6310501;22;19999;-78
2023/10/18 04:12:19;;;;;;;6.82;6.30;;;;;;;9.28;100.00;95002.03;6310962;22;20003;-79
2023/10/18 04:14:56;;;;;;;7.05;6.47;;;;;;;9.24;100.00;95005.94;6310604;22;20000;-78
2023/10/18 04:22:46;;;;;;;6.78;6.25;;;;;;;9.24;100.00;94982.31;6310305;22;20003;-78
2023/10/18 04:25:25;;;;;;;8.73;6.30;;;;;;;9.29;100.00;94987.94;6282991;22;19999;-79
2023/10/18 04:27:54;;;;;;;6.55;6.05;;;;;;;9.30;100.00;94982.53;6283589;22;20014;-78
2023/10/18 04:30:22;;;;;;;6.45;5.93;;;;;;;9.38;100.00;94965.19;6310796;22;20013;-79
2023/10/18 04:32:54;;;;;;;6.57;5.97;;;;;;;9.36;100.00;94975.00;6311076;22;20006;-78
2023/10/18 04:35:25;;;;;;;6.60;6.03;;;;;;;9.41;100.00;94962.25;6310765;22;20011;-78
2023/10/18 04:37:54;;;;;;;6.03;5.45;;;;;;;9.43;100.00;94966.38;6309442;22;20485;-78
2023/10/18 04:40:23;;;;;;;6.60;6.00;;;;;;;9.42;100.00;94956.84;6309164;22;19999;-78
2023/10/18 04:42:55;;;;;;;6.70;6.07;;;;;;;9.54;100.00;94957.44;6281864;22;19998;-78
2023/10/18 04:45:26;;;;;;;6.20;5.70;;;;;;;9.53;100.00;94952.31;6308570;22;19991;-78
2023/10/18 04:47:58;;;;;;;6.13;5.45;;;;;;;9.56;100.00;94952.00;6309282;22;20023;-78
2023/10/18 04:50:32;;;;;;;5.95;5.47;;;;;;;9.56;100.00;94934.44;6308155;22;20029;-79
2023/10/18 04:52:59;;;;;;;7.28;6.28;;;;;;;9.54;100.00;94938.19;6309970;22;20003;-78
2023/10/18 04:55:27;;;;;;;6.13;5.63;;;;;;;9.55;100.00;94935.44;6309772;22;20003;-78
2023/10/18 04:57:53;;;;;;;6.20;5.63;;;;;;;9.57;100.00;94930.84;6310674;22;20002;-79
2023/10/18 05:00:34;;;;;;;7.03;6.38;;;;;;;9.59;100.00;94930.66;6282787;22;20417;-78
2023/10/18 05:03:02;;;;;;;6.55;5.95;;;;;;;9.58;100.00;94926.38;6283693;22;20003;-78
2023/10/18 05:05:27;;;;;;;6.13;5.57;;;;;;;9.61;100.00;94920.81;6309681;22;20003;-78
2023/10/18 05:07:54;;;;;;;8.10;5.97;;;;;;;9.65;100.00;94916.09;6282889;22;19999;-78
2023/10/18 05:10:21;;;;;;;6.03;5.60;;;;;;;9.64;100.00;94924.94;6309019;22;20034;-78
2023/10/18 05:12:49;;;;;;;6.60;5.93;;;;;;;9.63;100.00;94924.16;6309492;22;19995;-78
2023/10/18 05:15:21;;;;;;;5.80;5.30;;;;;;;9.60;100.00;94913.91;6309472;22;20006;-78
2023/10/18 05:17:48;;;;;;;5.70;5.20;;;;;;;9.62;100.00;94911.16;6306977;22;20362;-78
2023/10/18 05:22:48;;;;;;;6.68;5.88;;;;;;;9.61;100.00;94910.31;6306505;22;20007;-78
2023/10/18 05:27:45;;;;;;;9.25;8.55;;;;;;;9.59;100.00;94918.38;6309171;22;20003;-78
2023/10/18 05:30:26;;;;;;;5.85;5.32;;;;;;;9.57;100.00;94917.69;6282402;22;20286;-78
2023/10/18 05:35:26;;;;;;;5.72;5.20;;;;;;;9.60;100.00;94906.88;6308521;22;20007;-78
2023/10/18 05:43:12;;;;;;;6.63;5.60;;;;;;;9.64;100.00;94920.53;6306897;22;20086;-77
2023/10/18 05:45:40;;;;;;;5.50;4.80;;;;;;;9.62;100.00;94913.78;6307558;22;20320;-77
2023/10/18 05:48:13;;;;;;;5.45;5.05;;;;;;;9.62;100.00;94917.25;6308590;22;20064;-77
2023/10/18 05:50:45;;;;;;;6.25;5.65;;;;;;;9.63;100.00;94915.41;6281708;22;20389;-77
2023/10/18 05:53:12;;;;;;;5.97;5.45;;;;;;;9.64;100.00;94919.69;6308774;22;20074;-77
2023/10/18 05:55:40;;;;;;;6.05;5.63;;;;;;;9.66;100.00;94923.00;6308752;22;20082;-78
2023/10/18 05:58:05;;;;;;;8.57;5.72;;;;;;;9.64;100.00;94924.94;6282775;22;20029;-76
2023/10/18 06:00:35;;;;;;;7.30;6.22;;;;;;;9.78;100.00;94913.88;6308553;22;19999;-77
2023/10/18 06:03:01;;;;;;;8.55;7.78;;;;;;;9.72;100.00;94907.44;6307576;22;19995;-76
2023/10/18 06:05:35;;;;;;;11.05;8.20;;;;;;;9.70;100.00;94904.13;6307449;22;20437;-77
2023/10/18 06:08:01;;;;;;;7.87;7.07;;;;;;;9.73;100.00;94903.81;6281841;22;20466;-78
2023/10/18 06:10:26;;;;;;;8.13;5.97;;;;;;;9.77;100.00;94909.59;6281734;22;20003;-77
2023/10/18 06:13:05;;;;;;;7.78;7.10;;;;;;;9.87;100.00;94907.66;6309394;22;20454;-77
2023/10/18 06:15:44;;;;;;;6.68;6.10;;;;;;;9.88;100.00;94904.06;6309508;22;20112;-77
2023/10/18 06:18:16;;;;;;;7.45;6.32;;;;;;;9.84;100.00;94907.19;6308995;22;20005;-78
2023/10/18 06:20:44;;;;;;;6.03;5.50;;;;;;;9.88;100.00;94911.13;6280767;22;20003;-79
2023/10/18 06:23:55;;;;;;;6.20;5.80;;;;;;;9.88;100.00;94903.25;6309859;22;20007;-79
2023/10/18 06:26:08;;;;;;;6.65;5.47;;;;;;;9.96;100.00;94889.31;6291987;22;20082;-78
2023/10/18 06:28:37;;;;;;;6.47;5.88;;;;;;;9.97;100.00;94888.34;6308531;22;20356;-79
2023/10/18 06:31:03;;;;;;;6.80;6.10;;;;;;;9.95;100.00;94885.03;6307885;22;19995;-78
2023/10/18 06:33:35;;;;;;;5.95;5.45;;;;;;;9.94;100.00;94884.22;6308930;22;19995;-79
2023/10/18 06:36:12;;;;;;;9.20;5.40;;;;;;;10.01;100.00;94889.66;6309335;22;20006;-79
2023/10/18 06:38:37;;;;;;;6.15;5.65;;;;;;;9.99;100.00;94891.63;6308638;22;20043;-77
2023/10/18 06:41:11;;;;;;;5.78;5.22;;;;;;;9.93;100.00;94887.81;6308420;22;20045;-78
2023/10/18 06:43:36;;;;;;;6.18;5.68;;;;;;;9.91;100.00;94888.94;6307304;22;20363;-77
2023/10/18 06:46:04;;;;;;;6.57;5.93;;;;;;;9.92;100.00;94875.66;6306101;22;20031;-78
2023/10/18 06:48:31;;;;;;;6.05;5.55;;;;;;;9.88;100.00;94874.31;6308105;22;20348;-78
2023/10/18 06:50:59;;;;;;;6.20;5.50;;;;;;;9.92;100.00;94880.06;6305437;22;20030;-78
2023/10/18 06:53:26;;;;;;;5.78;5.20;;;;;;;9.87;100.00;94872.69;6307088;22;20066;-78
2023/10/18 06:56:06;;;;;;;5.93;5.53;;;;;;;9.88;100.00;94884.84;6309284;22;19995;-78
2023/10/18 07:01:04;;;;;;;6.80;6.28;;;;;;;9.83;100.00;94876.59;6310711;22;20003;-79
2023/10/18 07:03:33;;;;;;;11.48;7.13;;;;;;;9.79;100.00;94880.50;6306856;22;20011;-78
2023/10/18 07:06:04;;;;;;;11.55;8.32;;;;;;;9.79;100.00;94878.72;6309450;22;20066;-78
2023/10/18 07:08:33;;;;;;;9.50;8.13;;;;;;;9.80;100.00;94877.75;6308954;22;20346;-78
2023/10/18 07:11:02;;;;;;;11.57;7.75;;;;;;;9.81;100.00;94873.28;6308681;22;20025;-77
2023/10/18 07:14:04;;;;;;;10.57;7.20;;;;;;;9.80;100.00;94871.63;6309145;22;20003;-78
2023/10/18 07:19:24;;;;;;;12.27;11.27;;;;;;;10.03;100.00;94883.25;6307688;22;20003;-79
2023/10/18 07:21:49;;;;;;;8.93;8.13;;;;;;;10.00;100.00;94885.38;6308445;22;19996;-79
2023/10/18 07:24:17;;;;;;;8.70;7.90;;;;;;;10.03;100.00;94898.22;6308578;22;20018;-78
2023/10/18 07:26:46;;;;;;;8.25;7.45;;;;;;;10.06;100.00;94902.31;6307367;22;20474;-80
2023/10/18 07:29:13;;;;;;;6.50;5.82;;;;;;;10.27;100.00;94889.56;6308550;22;20034;-79
2023/10/18 07:31:39;;;;;;;7.15;6.43;;;;;;;10.22;100.00;94899.75;6309003;22;20425;-79
2023/10/18 07:34:17;;;;;;;7.10;6.50;;;;;;;10.20;100.00;94893.84;6310647;22;20039;-78
2023/10/18 07:36:47;;;;;;;9.48;5.70;;;;;;;10.20;100.00;94896.47;6309928;22;19999;-78
2023/10/18 07:39:16;;;;;;;9.80;6.15;;;;;;;10.25;100.00;94902.06;6310746;22;20003;-79
2023/10/18 07:41:42;;;;;;;6.15;5.65;;;;;;;10.36;100.00;94885.16;6282860;22;19999;-79
2023/10/18 07:44:08;;;;;;;6.60;6.05;;;;;;;10.42;100.00;94891.63;6283889;22;20057;-78
2023/10/18 07:46:34;;;;;;;6.65;6.15;;;;;;;10.52;100.00;94892.31;6310284;22;19999;-78
2023/10/18 07:49:11;;;;;;;6.03;5.43;;;;;;;10.55;100.00;94885.91;6310327;22;20060;-78
2023/10/18 07:51:49;;;;;;;14.23;8.02;;;;;;;10.69;100.00;94887.91;6282737;22;20003;-78
2023/10/18 07:54:16;;;;;;;6.43;5.85;;;;;;;10.82;100.00;94887.44;6310270;22;19998;-78
2023/10/18 07:56:50;;;;;;;5.20;4.80;;;;;;;11.00;100.00;94884.63;6310145;22;20010;-78
2023/10/18 07:59:32;;;;;;;5.33;4.83;;;;;;;11.16;100.00;94883.81;6310170;22;20019;-78
2023/10/18 08:04:44;;;;;;;6.03;5.55;;;;;;;11.50;100.00;94889.88;6309968;22;20023;-79
2023/10/18 08:07:15;;;;;;;5.75;5.25;;;;;;;11.57;100.00;94900.56;6282410;22;20409;-78
2023/10/18 08:09:43;;;;;;;5.53;4.95;;;;;;;11.73;100.00;94905.00;6310658;22;19995;-79
2023/10/18 08:12:29;;;;;;;7.47;4.30;;;;;;;11.96;100.00;94913.00;6310022;22;20003;-80
2023/10/18 08:14:55;;;;;;;4.55;3.90;;;;;;;12.24;100.00;94933.69;6308534;22;20027;-79
2023/10/18 08:17:30;;;;;;;4.85;4.38;;;;;;;12.46;100.00;94941.88;6308857;22;20405;-79
2023/10/18 08:19:57;;;;;;;5.63;4.60;;;;;;;12.74;100.00;94962.53;6307624;22;19999;-79
2023/10/18 08:22:23;;;;;;;4.38;3.97;;;;;;;12.93;100.00;94978.94;6310167;22;20003;-78
2023/10/18 08:24:50;;;;;;;5.90;4.50;;;;;;;13.08;100.00;94995.69;6309632;22;20299;-79
2023/10/18 08:27:16;;;;;;;6.07;3.50;;;;;;;13.25;100.00;95003.53;6309685;22;19995;-79
2023/10/18 08:29:42;;;;;;;4.93;3.42;;;;;;;13.45;100.00;95017.94;6309776;22;20061;-80
2023/10/18 08:32:16;;;;;;;3.63;3.05;;;;;;;13.68;100.00;95025.06;6307854;22;20023;-79
2023/10/18 08:34:43;;;;;;;5.72;3.45;;;;;;;13.97;100.00;95038.53;6310147;22;20000;-79
2023/10/18 08:37:13;;;;;;;3.65;3.35;;;;;;;14.22;100.00;95054.19;6308950;22;19999;-79
2023/10/18 08:39:39;;;;;;;3.30;3.10;;;;;;;14.37;100.00;95068.28;6310150;22;19995;-80
2023/10/18 08:42:14;;;;;;;3.47;2.78;;;;;;;14.56;100.00;95077.53;6309237;22;20442;-80
2023/10/18 08:44:40;;;;;;;3.08;2.70;;;;;;;14.69;100.00;95098.06;6309799;22;20262;-79
2023/10/18 08:49:34;;;;;;;3.67;3.38;;;;;;;14.72;100.00;95100.38;6310066;22;19999;-79
2023/10/18 08:52:08;;;;;;;4.55;3.53;;;;;;;14.64;100.00;95107.56;6309918;22;20102;-79
2023/10/18 08:54:39;;;;;;;3.15;2.95;;;;;;;14.60;100.00;95105.28;6309664;22;20320;-79
2023/10/18 08:57:07;;;;;;;7.88;3.28;;;;;;;14.55;100.00;95112.13;6309166;22;19995;-79
2023/10/18 08:59:42;;;;;;;4.72;3.20;;;;;;;14.55;100.00;95110.31;6310077;22;20015;-79
2023/10/18 09:02:18;;;;;;;3.08;2.78;;;;;;;14.55;100.00;95125.38;6309085;22;20010;-79
2023/10/18 09:04:58;;;;;;;5.93;3.05;;;;;;;14.53;100.00;95116.78;6307730;22;20095;-79
2023/10/18 09:07:45;;;;;;;2.58;2.38;;;;;;;14.57;100.00;95118.06;6308814;22;19999;-80
2023/10/18 09:10:13;;;;;;;3.05;2.72;;;;;;;14.60;100.00;95118.53;6309561;22;20002;-79
2023/10/18 09:17:57;;;;;;;5.18;2.97;;;;;;;15.01;100.00;95113.81;6309297;22;20037;-79
2023/10/18 09:20:27;;;;;;;3.92;2.88;;;;;;;15.09;100.00;95110.25;6308924;22;20074;-79
2023/10/18 09:22:53;;;;;;;5.95;2.88;;;;;;;15.23;100.00;95101.44;6309236;22;19999;-79
2023/10/18 09:25:23;;;;;;;3.47;3.10;;;;;;;15.28;100.00;95087.63;6281262;22;19992;-79
2023/10/18 09:27:50;;;;;;;4.82;3.03;;;;;;;15.36;100.00;95063.66;6308075;22;20003;-79
2023/10/18 09:30:18;;;;;;;2.95;2.60;;;;;;;15.40;100.00;95061.44;6309288;22;19999;-79
2023/10/18 09:32:45;;;;;;;5.60;2.58;;;;;;;15.38;100.00;95060.81;6307962;22;20326;-79
2023/10/18 09:35:11;;;;;;;5.30;2.95;;;;;;;15.47;100.00;95059.69;6309260;22;20010;-79
2023/10/18 09:37:37;;;;;;;5.97;3.10;;;;;;;15.42;100.00;95047.00;6281598;22;20003;-79
2023/10/18 09:40:03;;;;;;;3.67;3.03;;;;;;;15.64;100.00;95020.47;6309670;22;20007;-79
2023/10/18 09:42:29;;;;;;;5.00;2.85;;;;;;;15.52;100.00;95024.63;6281487;22;20006;-79
2023/10/18 09:44:55;;;;;;;8.75;3.30;;;;;;;15.53;100.00;95037.72;6309093;22;20034;-79
2023/10/18 09:47:26;;;;;;;4.97;3.22;;;;;;;15.68;100.00;95028.88;6308717;22;19995;-79
2023/10/18 09:50:05;;;;;;;3.50;2.70;;;;;;;15.68;100.00;95007.63;6308722;22;20003;-79
2023/10/18 09:52:32;;;;;;;3.08;2.88;;;;;;;15.74;100.00;95026.28;6308674;22;19995;-79
2023/10/18 09:55:01;;;;;;;3.20;2.83;;;;;;;15.78;100.00;95024.06;6308522;22;20869;-79
2023/10/18 09:57:35;;;;;;;3.72;2.85;;;;;;;15.79;100.00;95030.19;6308568;22;20006;-79
2023/10/18 10:00:11;;;;;;;2.80;2.60;;;;;;;15.90;100.00;95021.75;6280870;22;20003;-79
2023/10/18 10:02:37;;;;;;;2.78;2.42;;;;;;;15.98;100.00;95015.50;6307713;22;20010;-79
2023/10/18 10:05:11;;;;;;;3.10;2.90;;;;;;;16.10;100.00;95021.09;6280407;22;20045;-79
2023/10/18 10:07:41;;;;;;;2.75;2.53;;;;;;;16.25;100.00;95013.84;6309320;22;19995;-80
2023/10/18 10:10:09;;;;;;;5.18;2.88;;;;;;;16.36;100.00;95001.03;6309505;22;20009;-80
2023/10/18 10:12:35;;;;;;;10.73;2.35;;;;;;;16.53;100.00;95004.19;6308543;22;20014;-79
2023/10/18 10:15:03;;;;;;;3.05;2.40;;;;;;;16.64;100.00;94992.19;6308699;22;20007;-79
2023/10/18 10:17:31;;;;;;;2.53;2.30;;;;;;;16.73;100.00;94975.88;6309345;22;19995;-78
2023/10/18 10:20:10;;;;;;;3.80;2.30;;;;;;;16.74;100.00;94974.06;6309680;22;20010;-78
2023/10/18 10:22:38;;;;;;;2.50;2.30;;;;;;;16.84;100.00;94989.63;6309264;22;20007;-78
2023/10/18 10:25:04;;;;;;;2.88;2.60;;;;;;;17.01;100.00;94971.53;6309653;22;19995;-78
2023/10/18 10:30:03;;;;;;;3.10;2.47;;;;;;;17.31;100.00;94937.44;6309520;22;20416;-78
2023/10/18 10:32:29;;;;;;;2.85;2.55;;;;;;;17.41;100.00;94938.84;6309720;22;20070;-78
2023/10/18 10:35:15;;;;;;;3.10;2.80;;;;;;;17.49;100.00;94953.81;6282128;22;19999;-79
2023/10/18 10:37:49;;;;;;;;;;;;;;;17.60;100.00;94946.03;6310451;22;20003;-76
2023/10/18 10:43:02;;;;;;;2.75;2.45;;;;;;;17.99;100.00;94948.09;6309735;22;20027;-79
2023/10/18 10:45:30;;;;;;;2.55;2.35;;;;;;;18.04;100.00;94908.34;6308812;22;20001;-78
2023/10/18 10:47:57;;;;;;;4.43;2.45;;;;;;;18.24;100.00;94886.19;6310021;22;20006;-78
2023/10/18 10:50:45;;;;;;;2.83;2.20;;;;;;;18.39;100.00;94888.59;6309184;22;20003;-78
2023/10/18 10:53:11;;;;;;;3.45;2.55;;;;;;;18.61;100.00;94881.94;6305940;22;20459;-79
2023/10/18 10:55:38;;;;;;;3.65;2.50;;;;;;;18.50;100.00;94863.13;6307974;22;20095;-79
2023/10/18 10:58:16;;;;;;;2.60;2.25;;;;;;;18.40;100.00;94858.25;6308603;22;20013;-77
2023/10/18 11:01:04;;;;;;;3.20;2.40;;;;;;;18.10;100.00;94858.78;6281874;22;20003;-79
2023/10/18 11:03:33;;;;;;;2.63;2.42;;;;;;;18.02;100.00;94879.28;6310557;22;20016;-77
2023/10/18 11:05:59;;;;;;;3.88;2.58;;;;;;;18.03;100.00;94861.44;6308251;22;20247;-76
2023/10/18 11:08:27;;;;;;;2.70;2.50;;;;;;;18.06;100.00;94858.38;6311244;22;20048;-77
2023/10/18 11:10:52;;;;;;;2.42;2.20;;;;;;;18.23;100.00;94853.38;6284469;22;20006;-76
2023/10/18 11:13:22;;;;;;;4.63;2.40;;;;;;;18.32;100.00;94849.47;6311642;22;20305;-76
2023/10/18 11:15:53;;;;;;;2.40;2.20;;;;;;;18.26;100.00;94850.31;6309569;22;20420;-77
2023/10/18 11:18:22;;;;;;;4.18;2.40;;;;;;;18.32;100.00;94856.63;6310999;22;20011;-76
2023/10/18 11:20:58;;;;;;;4.05;2.20;;;;;;;18.27;100.00;94862.63;6308183;22;20445;-76
2023/10/18 11:23:29;;;;;;;3.50;2.50;;;;;;;18.25;100.00;94856.69;6311595;22;19999;-76
2023/10/18 11:25:56;;;;;;;2.67;2.47;;;;;;;18.22;100.00;94854.41;6308915;22;20524;-76
2023/10/18 11:28:30;;;;;;;4.80;2.80;;;;;;;18.23;100.00;94844.59;6284284;22;20014;-76
2023/10/18 11:30:57;;;;;;;4.95;2.63;;;;;;;18.30;100.00;94843.53;6310937;22;19999;-76
2023/10/18 11:33:37;;;;;;;2.38;2.17;;;;;;;18.36;100.00;94815.25;6311623;22;20014;-76
2023/10/18 11:36:04;;;;;;;3.28;2.58;;;;;;;18.32;100.00;94817.50;6310677;22;20018;-76
2023/10/18 11:38:34;;;;;;;4.63;2.50;;;;;;;18.36;100.00;94825.91;6311031;22;19995;-76
2023/10/18 11:41:09;;;;;;;4.18;2.65;;;;;;;18.40;100.00;94835.09;6282473;22;20057;-77
2023/10/18 11:43:39;;;;;;;3.10;2.33;;;;;;;18.54;100.00;94825.19;6286017;22;20011;-78
2023/10/18 11:46:08;;;;;;;3.22;2.45;;;;;;;18.54;100.00;94811.03;6284254;22;20003;-76
2023/10/18 11:48:35;;;;;;;4.82;2.35;;;;;;;18.66;100.00;94820.00;6281568;22;19999;-77
2023/10/18 11:51:02;;;;;;;2.33;2.13;;;;;;;18.73;100.00;94809.31;6310570;22;19999;-77
2023/10/18 11:53:28;;;;;;;2.97;2.10;;;;;;;18.71;100.00;94833.50;6310586;22;20003;-77
2023/10/18 11:56:01;;;;;;;5.40;2.47;;;;;;;18.75;100.00;94833.91;6309751;22;19995;-77
2023/10/18 11:58:33;;;;;;;3.50;2.17;;;;;;;18.78;100.00;94828.13;6310141;22;20047;-77
2023/10/18 12:01:00;;;;;;;4.65;2.38;;;;;;;18.84;100.00;94832.59;6309733;22;20007;-77
2023/10/18 12:03:27;;;;;;;4.00;2.65;;;;;;;18.69;100.00;94826.75;6310730;22;20039;-77
2023/10/18 12:05:57;;;;;;;4.68;2.67;;;;;;;18.65;100.00;94836.19;6310423;22;20309;-77
2023/10/18 12:08:23;;;;;;;3.60;2.55;;;;;;;18.89;100.00;94811.44;6308779;22;20000;-76
2023/10/18 12:10:49;;;;;;;3.97;2.67;;;;;;;18.87;100.00;94816.16;6281077;22;20546;-77
2023/10/18 12:13:17;;;;;;;2.50;2.30;;;;;;;18.90;100.00;94813.09;6309737;22;20000;-77
2023/10/18 12:15:42;;;;;;;4.82;2.97;;;;;;;19.03;100.00;94816.72;6282251;22;20388;-77
2023/10/18 12:18:09;;;;;;;3.00;2.33;;;;;;;19.04;100.00;94815.69;6309631;22;20071;-77
2023/10/18 12:20:36;;;;;;;4.35;2.47;;;;;;;19.01;100.00;94821.44;6281240;22;20007;-77
2023/10/18 12:23:18;;;;;;;9.23;2.80;;;;;;;19.20;100.00;94792.97;6308803;22;20668;-77
2023/10/18 12:25:44;;;;;;;3.70;2.53;;;;;;;18.86;100.00;94809.19;6308684;22;20007;-76